sensor_id;sensor_type;location;lat;lon;timestamp;temperature;humidity
4826;DHT22;2427;50.934;6.776;2023-04-03T00:02:10;3.00;1.00
4826;DHT22;2427;50.934;6.776;2023-04-03T00:04:36;3.00;1.00
4826;DHT22;2427;50.934;6.776;2023-04-03T00:07:01;3.10;1.00
4826;DHT22;2427;50.934;6.776;2023-04-03T00:09:27;3.10;1.00
4826;DHT22;2427;50.934;6.776;2023-04-03T00:11:52;3.00;1.00
4826;DHT22;2427;50.934;6.776;2023-04-03T00:14:18;2.90;1.00
4826;DHT22;2427;50.934;6.776;2023-04-03T00:16:43;2.90;1.00
4826;DHT22;2427;50.934;6.776;2023-04-03T00:19:09;2.80;1.00
4826;DHT22;2427;50.934;6.776;2023-04-03T00:21:37;2.80;1.00
4826;DHT22;2427;50.934;6.776;2023-04-03T00:24:02;2.80;1.00
4826;DHT22;2427;50.934;6.776;2023-04-03T00:26:28;2.80;1.00
4826;DHT22;2427;50.934;6.776;2023-04-03T00:28:53;2.70;1.00
4826;DHT22;2427;50.934;6.776;2023-04-03T00:31:19;2.60;1.00
4826;DHT22;2427;50.934;6.776;2023-04-03T00:33:45;2.50;1.00
4826;DHT22;2427;50.934;6.776;2023-04-03T00:36:11;2.50;1.00
4826;DHT22;2427;50.934;6.776;2023-04-03T00:38:37;2.40;33.60
4826;DHT22;2427;50.934;6.776;2023-04-03T00:41:03;2.40;46.50
4826;DHT22;2427;50.934;6.776;2023-04-03T00:43:28;2.40;48.90
4826;DHT22;2427;50.934;6.776;2023-04-03T00:45:56;2.40;74.40
4826;DHT22;2427;50.934;6.776;2023-04-03T00:48:29;2.30;99.90
4826;DHT22;2427;50.934;6.776;2023-04-03T00:50:57;2.20;99.90
4826;DHT22;2427;50.934;6.776;2023-04-03T00:53:26;2.20;99.90
4826;DHT22;2427;50.934;6.776;2023-04-03T00:55:54;2.10;99.90
4826;DHT22;2427;50.934;6.776;2023-04-03T00:58:24;2.00;99.90
4826;DHT22;2427;50.934;6.776;2023-04-03T01:11:14;2.00;99.90
4826;DHT22;2427;50.934;6.776;2023-04-03T01:13:40;1.90;99.90
4826;DHT22;2427;50.934;6.776;2023-04-03T01:16:06;1.80;99.90
4826;DHT22;2427;50.934;6.776;2023-04-03T01:18:33;1.70;99.90
4826;DHT22;2427;50.934;6.776;2023-04-03T01:21:10;1.60;99.90
4826;DHT22;2427;50.934;6.776;2023-04-03T01:23:59;1.60;99.90
4826;DHT22;2427;50.934;6.776;2023-04-03T01:26:27;1.60;1.00
4826;DHT22;2427;50.934;6.776;2023-04-03T01:28:54;1.60;1.00
4826;DHT22;2427;50.934;6.776;2023-04-03T01:31:27;1.60;1.00
4826;DHT22;2427;50.934;6.776;2023-04-03T01:33:55;1.60;1.00
4826;DHT22;2427;50.934;6.776;2023-04-03T01:36:23;1.70;1.00
4826;DHT22;2427;50.934;6.776;2023-04-03T01:38:50;1.70;1.00
4826;DHT22;2427;50.934;6.776;2023-04-03T01:41:16;1.70;1.00
4826;DHT22;2427;50.934;6.776;2023-04-03T01:43:42;1.80;99.90
4826;DHT22;2427;50.934;6.776;2023-04-03T01:46:08;1.80;99.90
4826;DHT22;2427;50.934;6.776;2023-04-03T01:48:33;1.80;99.90
4826;DHT22;2427;50.934;6.776;2023-04-03T01:51:00;1.70;99.90
4826;DHT22;2427;50.934;6.776;2023-04-03T01:53:25;1.70;99.90
4826;DHT22;2427;50.934;6.776;2023-04-03T01:55:51;1.70;99.90
4826;DHT22;2427;50.934;6.776;2023-04-03T01:58:16;1.70;99.90
4826;DHT22;2427;50.934;6.776;2023-04-03T02:00:42;1.70;99.90
4826;DHT22;2427;50.934;6.776;2023-04-03T02:03:08;1.70;99.90
4826;DHT22;2427;50.934;6.776;2023-04-03T02:05:33;1.70;99.90
4826;DHT22;2427;50.934;6.776;2023-04-03T02:07:59;1.70;99.90
4826;DHT22;2427;50.934;6.776;2023-04-03T02:10:25;1.70;99.90
4826;DHT22;2427;50.934;6.776;2023-04-03T02:12:50;1.70;99.90
4826;DHT22;2427;50.934;6.776;2023-04-03T02:15:17;1.60;99.90
4826;DHT22;2427;50.934;6.776;2023-04-03T02:17:42;1.60;99.90
4826;DHT22;2427;50.934;6.776;2023-04-03T02:20:08;1.60;99.90
4826;DHT22;2427;50.934;6.776;2023-04-03T02:22:34;1.50;99.90
4826;DHT22;2427;50.934;6.776;2023-04-03T02:24:59;1.50;99.90
4826;DHT22;2427;50.934;6.776;2023-04-03T02:27:26;1.50;99.90
4826;DHT22;2427;50.934;6.776;2023-04-03T02:29:51;1.50;99.90
4826;DHT22;2427;50.934;6.776;2023-04-03T02:32:17;1.50;99.90
4826;DHT22;2427;50.934;6.776;2023-04-03T02:34:42;1.60;99.90
4826;DHT22;2427;50.934;6.776;2023-04-03T02:37:08;1.60;99.90
4826;DHT22;2427;50.934;6.776;2023-04-03T02:39:34;1.60;64.30
4826;DHT22;2427;50.934;6.776;2023-04-03T02:41:59;1.50;99.90
4826;DHT22;2427;50.934;6.776;2023-04-03T02:44:25;1.50;99.90
4826;DHT22;2427;50.934;6.776;2023-04-03T02:46:51;1.50;99.90
4826;DHT22;2427;50.934;6.776;2023-04-03T02:49:16;1.40;99.90
4826;DHT22;2427;50.934;6.776;2023-04-03T02:51:42;1.40;99.90
4826;DHT22;2427;50.934;6.776;2023-04-03T02:54:08;1.40;99.90
4826;DHT22;2427;50.934;6.776;2023-04-03T02:56:33;1.50;99.90
4826;DHT22;2427;50.934;6.776;2023-04-03T02:58:59;1.40;99.90
4826;DHT22;2427;50.934;6.776;2023-04-03T03:01:25;1.30;99.90
4826;DHT22;2427;50.934;6.776;2023-04-03T03:03:53;1.30;99.90
4826;DHT22;2427;50.934;6.776;2023-04-03T03:06:19;1.30;99.90
4826;DHT22;2427;50.934;6.776;2023-04-03T03:08:45;1.30;99.90
4826;DHT22;2427;50.934;6.776;2023-04-03T03:11:11;1.20;99.90
4826;DHT22;2427;50.934;6.776;2023-04-03T03:13:37;1.20;99.90
4826;DHT22;2427;50.934;6.776;2023-04-03T03:16:03;1.20;99.90
4826;DHT22;2427;50.934;6.776;2023-04-03T03:18:29;1.30;99.90
4826;DHT22;2427;50.934;6.776;2023-04-03T03:20:57;1.20;99.90
4826;DHT22;2427;50.934;6.776;2023-04-03T03:23:24;1.20;99.90
4826;DHT22;2427;50.934;6.776;2023-04-03T03:25:55;1.20;99.90
4826;DHT22;2427;50.934;6.776;2023-04-03T03:28:21;1.20;99.90
4826;DHT22;2427;50.934;6.776;2023-04-03T03:30:46;1.10;99.90
4826;DHT22;2427;50.934;6.776;2023-04-03T03:33:12;1.10;99.90
4826;DHT22;2427;50.934;6.776;2023-04-03T03:35:37;1.20;99.90
4826;DHT22;2427;50.934;6.776;2023-04-03T03:38:03;1.10;99.90
4826;DHT22;2427;50.934;6.776;2023-04-03T03:40:28;1.10;99.90
4826;DHT22;2427;50.934;6.776;2023-04-03T03:42:54;1.10;99.90
4826;DHT22;2427;50.934;6.776;2023-04-03T03:45:20;1.10;99.90
4826;DHT22;2427;50.934;6.776;2023-04-03T03:47:45;1.00;99.90
4826;DHT22;2427;50.934;6.776;2023-04-03T03:50:11;1.00;99.90
4826;DHT22;2427;50.934;6.776;2023-04-03T03:52:37;1.00;99.90
4826;DHT22;2427;50.934;6.776;2023-04-03T03:55:02;0.90;99.90
4826;DHT22;2427;50.934;6.776;2023-04-03T03:57:28;0.90;1.00
4826;DHT22;2427;50.934;6.776;2023-04-03T03:59:54;0.90;1.00
4826;DHT22;2427;50.934;6.776;2023-04-03T04:02:20;1.00;1.00
4826;DHT22;2427;50.934;6.776;2023-04-03T04:04:45;1.00;99.90
4826;DHT22;2427;50.934;6.776;2023-04-03T04:07:11;1.00;99.90
4826;DHT22;2427;50.934;6.776;2023-04-03T04:09:36;0.90;99.90
4826;DHT22;2427;50.934;6.776;2023-04-03T04:12:02;0.90;99.90
4826;DHT22;2427;50.934;6.776;2023-04-03T04:14:28;1.00;99.90
4826;DHT22;2427;50.934;6.776;2023-04-03T04:16:53;0.90;99.90
4826;DHT22;2427;50.934;6.776;2023-04-03T04:19:19;0.80;99.90
4826;DHT22;2427;50.934;6.776;2023-04-03T04:21:44;0.70;99.90
4826;DHT22;2427;50.934;6.776;2023-04-03T04:24:11;0.60;99.90
4826;DHT22;2427;50.934;6.776;2023-04-03T04:26:36;0.60;1.00
4826;DHT22;2427;50.934;6.776;2023-04-03T04:29:02;0.70;1.00
4826;DHT22;2427;50.934;6.776;2023-04-03T04:31:27;0.70;1.00
4826;DHT22;2427;50.934;6.776;2023-04-03T04:33:53;0.70;1.00
4826;DHT22;2427;50.934;6.776;2023-04-03T04:36:19;0.80;1.00
4826;DHT22;2427;50.934;6.776;2023-04-03T04:38:45;0.80;99.90
4826;DHT22;2427;50.934;6.776;2023-04-03T04:41:10;0.70;1.00
4826;DHT22;2427;50.934;6.776;2023-04-03T04:43:36;0.70;1.00
4826;DHT22;2427;50.934;6.776;2023-04-03T04:46:03;0.60;1.00
4826;DHT22;2427;50.934;6.776;2023-04-03T04:48:28;0.50;1.00
4826;DHT22;2427;50.934;6.776;2023-04-03T04:50:54;0.40;1.00
4826;DHT22;2427;50.934;6.776;2023-04-03T04:53:20;0.40;1.00
4826;DHT22;2427;50.934;6.776;2023-04-03T04:55:45;0.40;1.00
4826;DHT22;2427;50.934;6.776;2023-04-03T04:58:11;0.30;1.00
4826;DHT22;2427;50.934;6.776;2023-04-03T05:00:37;0.30;1.00
4826;DHT22;2427;50.934;6.776;2023-04-03T05:03:02;0.30;1.00
4826;DHT22;2427;50.934;6.776;2023-04-03T05:05:28;0.30;1.00
4826;DHT22;2427;50.934;6.776;2023-04-03T05:07:53;0.20;1.00
4826;DHT22;2427;50.934;6.776;2023-04-03T05:10:19;0.20;1.00
4826;DHT22;2427;50.934;6.776;2023-04-03T05:12:44;0.20;1.00
4826;DHT22;2427;50.934;6.776;2023-04-03T05:15:10;0.10;1.00
4826;DHT22;2427;50.934;6.776;2023-04-03T05:17:36;0.20;35.00
4826;DHT22;2427;50.934;6.776;2023-04-03T05:20:02;0.10;57.50
4826;DHT22;2427;50.934;6.776;2023-04-03T05:22:29;0.10;64.90
4826;DHT22;2427;50.934;6.776;2023-04-03T05:24:54;0.20;99.90
4826;DHT22;2427;50.934;6.776;2023-04-03T05:27:20;0.20;99.90
4826;DHT22;2427;50.934;6.776;2023-04-03T05:29:45;0.20;99.90
4826;DHT22;2427;50.934;6.776;2023-04-03T05:32:11;0.20;99.90
4826;DHT22;2427;50.934;6.776;2023-04-03T05:34:37;0.20;99.90
4826;DHT22;2427;50.934;6.776;2023-04-03T05:37:02;0.30;99.90
4826;DHT22;2427;50.934;6.776;2023-04-03T05:39:30;0.30;99.90
4826;DHT22;2427;50.934;6.776;2023-04-03T05:41:57;0.40;99.90
4826;DHT22;2427;50.934;6.776;2023-04-03T05:44:22;0.40;99.90
4826;DHT22;2427;50.934;6.776;2023-04-03T05:46:48;0.50;99.90
4826;DHT22;2427;50.934;6.776;2023-04-03T05:49:13;0.60;99.90
4826;DHT22;2427;50.934;6.776;2023-04-03T05:51:39;0.70;99.90
4826;DHT22;2427;50.934;6.776;2023-04-03T05:54:24;0.80;99.90
4826;DHT22;2427;50.934;6.776;2023-04-03T05:56:50;1.00;99.90
4826;DHT22;2427;50.934;6.776;2023-04-03T05:59:17;1.30;71.40
4826;DHT22;2427;50.934;6.776;2023-04-03T06:01:43;1.50;1.00
4826;DHT22;2427;50.934;6.776;2023-04-03T06:04:09;1.70;1.00
4826;DHT22;2427;50.934;6.776;2023-04-03T06:06:54;1.80;99.90
4826;DHT22;2427;50.934;6.776;2023-04-03T06:09:22;1.90;99.90
4826;DHT22;2427;50.934;6.776;2023-04-03T06:11:49;1.90;99.90
4826;DHT22;2427;50.934;6.776;2023-04-03T06:14:14;2.00;99.10
4826;DHT22;2427;50.934;6.776;2023-04-03T06:16:40;2.00;15.60
4826;DHT22;2427;50.934;6.776;2023-04-03T06:19:07;2.10;1.00
4826;DHT22;2427;50.934;6.776;2023-04-03T06:21:33;2.10;1.00
4826;DHT22;2427;50.934;6.776;2023-04-03T06:23:59;2.20;1.00
4826;DHT22;2427;50.934;6.776;2023-04-03T06:26:24;2.30;1.00
4826;DHT22;2427;50.934;6.776;2023-04-03T06:28:50;2.30;1.00
4826;DHT22;2427;50.934;6.776;2023-04-03T06:31:16;2.30;99.90
4826;DHT22;2427;50.934;6.776;2023-04-03T06:33:42;2.40;99.90
4826;DHT22;2427;50.934;6.776;2023-04-03T06:36:09;2.50;99.90
4826;DHT22;2427;50.934;6.776;2023-04-03T06:38:35;2.50;99.90
4826;DHT22;2427;50.934;6.776;2023-04-03T06:41:01;2.60;99.90
4826;DHT22;2427;50.934;6.776;2023-04-03T06:43:26;2.70;95.20
4826;DHT22;2427;50.934;6.776;2023-04-03T06:45:52;2.70;35.50
4826;DHT22;2427;50.934;6.776;2023-04-03T06:48:18;2.80;45.60
4826;DHT22;2427;50.934;6.776;2023-04-03T06:50:44;2.80;1.00
4826;DHT22;2427;50.934;6.776;2023-04-03T06:53:10;2.90;1.00
4826;DHT22;2427;50.934;6.776;2023-04-03T06:55:35;3.00;1.00
4826;DHT22;2427;50.934;6.776;2023-04-03T06:58:02;3.00;1.00
4826;DHT22;2427;50.934;6.776;2023-04-03T07:00:29;3.10;1.00
4826;DHT22;2427;50.934;6.776;2023-04-03T07:02:55;3.20;1.00
4826;DHT22;2427;50.934;6.776;2023-04-03T07:05:23;3.20;1.00
4826;DHT22;2427;50.934;6.776;2023-04-03T07:07:48;3.30;1.00
4826;DHT22;2427;50.934;6.776;2023-04-03T07:10:15;3.30;1.00
4826;DHT22;2427;50.934;6.776;2023-04-03T07:12:41;3.40;1.00
4826;DHT22;2427;50.934;6.776;2023-04-03T07:15:07;3.40;1.00
4826;DHT22;2427;50.934;6.776;2023-04-03T07:17:33;3.50;1.00
4826;DHT22;2427;50.934;6.776;2023-04-03T07:19:59;3.50;1.00
4826;DHT22;2427;50.934;6.776;2023-04-03T07:22:24;3.60;1.00
4826;DHT22;2427;50.934;6.776;2023-04-03T07:24:50;3.70;1.00
4826;DHT22;2427;50.934;6.776;2023-04-03T07:27:16;3.70;1.00
4826;DHT22;2427;50.934;6.776;2023-04-03T07:29:42;3.80;1.00
4826;DHT22;2427;50.934;6.776;2023-04-03T07:32:09;3.90;1.00
4826;DHT22;2427;50.934;6.776;2023-04-03T07:34:35;4.00;1.00
4826;DHT22;2427;50.934;6.776;2023-04-03T07:37:01;4.00;1.00
4826;DHT22;2427;50.934;6.776;2023-04-03T07:39:28;4.10;1.00
4826;DHT22;2427;50.934;6.776;2023-04-03T07:41:54;4.30;1.00
4826;DHT22;2427;50.934;6.776;2023-04-03T07:44:21;4.30;1.00
4826;DHT22;2427;50.934;6.776;2023-04-03T07:46:47;4.40;1.00
4826;DHT22;2427;50.934;6.776;2023-04-03T07:49:14;4.50;99.90
4826;DHT22;2427;50.934;6.776;2023-04-03T07:51:39;4.60;99.90
4826;DHT22;2427;50.934;6.776;2023-04-03T07:54:06;4.70;99.90
4826;DHT22;2427;50.934;6.776;2023-04-03T07:56:31;4.70;99.90
4826;DHT22;2427;50.934;6.776;2023-04-03T07:58:57;4.80;99.90
4826;DHT22;2427;50.934;6.776;2023-04-03T08:01:23;4.80;99.90
4826;DHT22;2427;50.934;6.776;2023-04-03T08:03:48;4.90;99.90
4826;DHT22;2427;50.934;6.776;2023-04-03T08:06:14;5.00;99.90
4826;DHT22;2427;50.934;6.776;2023-04-03T08:08:40;5.10;99.90
4826;DHT22;2427;50.934;6.776;2023-04-03T08:11:06;5.10;99.90
4826;DHT22;2427;50.934;6.776;2023-04-03T08:13:33;5.20;99.90
4826;DHT22;2427;50.934;6.776;2023-04-03T08:16:11;5.30;99.90
4826;DHT22;2427;50.934;6.776;2023-04-03T08:18:37;5.40;99.90
4826;DHT22;2427;50.934;6.776;2023-04-03T08:21:09;5.40;99.90
4826;DHT22;2427;50.934;6.776;2023-04-03T08:23:34;5.30;99.90
4826;DHT22;2427;50.934;6.776;2023-04-03T08:26:06;5.40;99.90
4826;DHT22;2427;50.934;6.776;2023-04-03T08:28:32;5.50;99.90
4826;DHT22;2427;50.934;6.776;2023-04-03T08:31:02;5.60;99.90
4826;DHT22;2427;50.934;6.776;2023-04-03T08:33:28;5.60;99.90
4826;DHT22;2427;50.934;6.776;2023-04-03T08:35:54;5.70;99.90
4826;DHT22;2427;50.934;6.776;2023-04-03T08:38:19;5.70;99.90
4826;DHT22;2427;50.934;6.776;2023-04-03T08:40:45;5.80;99.90
4826;DHT22;2427;50.934;6.776;2023-04-03T08:43:26;5.90;99.90
4826;DHT22;2427;50.934;6.776;2023-04-03T08:45:57;6.00;99.90
4826;DHT22;2427;50.934;6.776;2023-04-03T08:48:29;6.10;99.90
4826;DHT22;2427;50.934;6.776;2023-04-03T08:51:02;6.20;99.90
4826;DHT22;2427;50.934;6.776;2023-04-03T08:53:34;6.20;99.90
4826;DHT22;2427;50.934;6.776;2023-04-03T08:56:05;6.20;99.90
4826;DHT22;2427;50.934;6.776;2023-04-03T08:58:56;6.20;99.90
4826;DHT22;2427;50.934;6.776;2023-04-03T09:01:39;6.40;99.90
4826;DHT22;2427;50.934;6.776;2023-04-03T09:04:16;6.60;99.90
4826;DHT22;2427;50.934;6.776;2023-04-03T09:06:57;6.70;99.90
4826;DHT22;2427;50.934;6.776;2023-04-03T09:09:40;6.80;99.90
4826;DHT22;2427;50.934;6.776;2023-04-03T09:12:21;6.80;99.90
4826;DHT22;2427;50.934;6.776;2023-04-03T09:15:06;6.90;99.90
4826;DHT22;2427;50.934;6.776;2023-04-03T09:25:45;7.00;99.90
4826;DHT22;2427;50.934;6.776;2023-04-03T09:28:10;7.00;99.90
4826;DHT22;2427;50.934;6.776;2023-04-03T09:30:37;7.00;99.90
4826;DHT22;2427;50.934;6.776;2023-04-03T09:33:04;7.10;99.90
4826;DHT22;2427;50.934;6.776;2023-04-03T09:35:37;7.20;99.90
4826;DHT22;2427;50.934;6.776;2023-04-03T09:40:50;7.30;99.90
4826;DHT22;2427;50.934;6.776;2023-04-03T09:43:21;7.40;99.90
4826;DHT22;2427;50.934;6.776;2023-04-03T09:45:48;7.60;99.90
4826;DHT22;2427;50.934;6.776;2023-04-03T09:48:16;7.70;99.90
4826;DHT22;2427;50.934;6.776;2023-04-03T09:51:02;7.70;99.90
4826;DHT22;2427;50.934;6.776;2023-04-03T09:53:35;7.90;99.90
4826;DHT22;2427;50.934;6.776;2023-04-03T09:56:18;7.90;99.90
4826;DHT22;2427;50.934;6.776;2023-04-03T10:04:13;8.20;99.90
4826;DHT22;2427;50.934;6.776;2023-04-03T10:06:44;8.30;99.90
4826;DHT22;2427;50.934;6.776;2023-04-03T10:09:25;8.40;99.90
4826;DHT22;2427;50.934;6.776;2023-04-03T10:12:05;8.50;99.90
4826;DHT22;2427;50.934;6.776;2023-04-03T10:14:33;8.50;99.90
4826;DHT22;2427;50.934;6.776;2023-04-03T10:17:03;8.60;99.90
4826;DHT22;2427;50.934;6.776;2023-04-03T10:19:45;8.60;99.90
4826;DHT22;2427;50.934;6.776;2023-04-03T10:25:10;8.60;99.90
4826;DHT22;2427;50.934;6.776;2023-04-03T10:33:39;8.40;99.90
4826;DHT22;2427;50.934;6.776;2023-04-03T10:39:42;8.60;99.90
4826;DHT22;2427;50.934;6.776;2023-04-03T10:42:39;8.70;99.90
4826;DHT22;2427;50.934;6.776;2023-04-03T10:48:18;8.80;99.90
4826;DHT22;2427;50.934;6.776;2023-04-03T10:58:50;9.20;99.90
4826;DHT22;2427;50.934;6.776;2023-04-03T11:01:23;9.30;99.90
4826;DHT22;2427;50.934;6.776;2023-04-03T11:04:00;9.40;99.90
4826;DHT22;2427;50.934;6.776;2023-04-03T11:06:34;9.50;99.90
4826;DHT22;2427;50.934;6.776;2023-04-03T11:11:44;9.60;99.90
4826;DHT22;2427;50.934;6.776;2023-04-03T11:14:24;9.60;99.90
4826;DHT22;2427;50.934;6.776;2023-04-03T11:17:19;9.90;99.90
4826;DHT22;2427;50.934;6.776;2023-04-03T11:22:30;10.00;99.90
4826;DHT22;2427;50.934;6.776;2023-04-03T11:28:11;10.30;99.90
4826;DHT22;2427;50.934;6.776;2023-04-03T11:30:58;10.40;99.90
4826;DHT22;2427;50.934;6.776;2023-04-03T11:33:51;10.50;99.90
4826;DHT22;2427;50.934;6.776;2023-04-03T11:36:27;10.60;99.90
4826;DHT22;2427;50.934;6.776;2023-04-03T11:38:56;10.70;99.90
4826;DHT22;2427;50.934;6.776;2023-04-03T11:41:29;10.80;99.90
4826;DHT22;2427;50.934;6.776;2023-04-03T11:44:06;10.80;99.90
4826;DHT22;2427;50.934;6.776;2023-04-03T11:46:53;10.90;99.90
4826;DHT22;2427;50.934;6.776;2023-04-03T12:08:45;12.20;99.90
4826;DHT22;2427;50.934;6.776;2023-04-03T12:24:33;13.00;99.90
4826;DHT22;2427;50.934;6.776;2023-04-03T12:39:55;14.00;99.90
4826;DHT22;2427;50.934;6.776;2023-04-03T12:45:12;14.50;99.90
4826;DHT22;2427;50.934;6.776;2023-04-03T12:47:43;14.60;99.90
4826;DHT22;2427;50.934;6.776;2023-04-03T12:52:57;14.70;99.90
4826;DHT22;2427;50.934;6.776;2023-04-03T12:55:25;15.10;99.90
4826;DHT22;2427;50.934;6.776;2023-04-03T12:57:51;15.20;99.90
4826;DHT22;2427;50.934;6.776;2023-04-03T13:00:32;15.50;99.90
4826;DHT22;2427;50.934;6.776;2023-04-03T13:03:00;15.80;99.90
4826;DHT22;2427;50.934;6.776;2023-04-03T13:05:26;16.30;99.90
4826;DHT22;2427;50.934;6.776;2023-04-03T13:07:59;16.60;99.90
4826;DHT22;2427;50.934;6.776;2023-04-03T13:10:27;17.70;99.90
4826;DHT22;2427;50.934;6.776;2023-04-03T13:12:58;18.70;99.90
4826;DHT22;2427;50.934;6.776;2023-04-03T13:15:42;20.40;99.90
4826;DHT22;2427;50.934;6.776;2023-04-03T13:18:28;21.60;99.90
4826;DHT22;2427;50.934;6.776;2023-04-03T13:20:59;22.60;99.90
4826;DHT22;2427;50.934;6.776;2023-04-03T13:23:26;23.80;99.90
4826;DHT22;2427;50.934;6.776;2023-04-03T13:25:52;24.80;99.90
4826;DHT22;2427;50.934;6.776;2023-04-03T13:28:21;25.20;99.90
4826;DHT22;2427;50.934;6.776;2023-04-03T13:33:31;25.10;99.90
4826;DHT22;2427;50.934;6.776;2023-04-03T13:36:05;26.00;99.90
4826;DHT22;2427;50.934;6.776;2023-04-03T13:38:32;26.80;99.90
4826;DHT22;2427;50.934;6.776;2023-04-03T13:41:02;26.60;99.90
4826;DHT22;2427;50.934;6.776;2023-04-03T13:43:35;27.20;99.90
4826;DHT22;2427;50.934;6.776;2023-04-03T13:48:41;28.00;98.70
4826;DHT22;2427;50.934;6.776;2023-04-03T13:53:46;29.00;97.20
4826;DHT22;2427;50.934;6.776;2023-04-03T13:56:23;29.10;94.80
4826;DHT22;2427;50.934;6.776;2023-04-03T13:59:05;28.90;91.70
4826;DHT22;2427;50.934;6.776;2023-04-03T14:01:44;29.00;89.80
4826;DHT22;2427;50.934;6.776;2023-04-03T14:04:31;29.10;87.40
4826;DHT22;2427;50.934;6.776;2023-04-03T14:06:57;28.90;79.80
4826;DHT22;2427;50.934;6.776;2023-04-03T14:09:25;29.10;77.90
4826;DHT22;2427;50.934;6.776;2023-04-03T14:11:54;28.50;73.10
4826;DHT22;2427;50.934;6.776;2023-04-03T14:14:27;28.90;71.00
4826;DHT22;2427;50.934;6.776;2023-04-03T14:16:56;29.20;69.00
4826;DHT22;2427;50.934;6.776;2023-04-03T14:19:40;29.40;65.90
4826;DHT22;2427;50.934;6.776;2023-04-03T14:22:17;28.20;59.70
4826;DHT22;2427;50.934;6.776;2023-04-03T14:24:43;29.10;60.80
4826;DHT22;2427;50.934;6.776;2023-04-03T14:29:42;29.80;57.70
4826;DHT22;2427;50.934;6.776;2023-04-03T14:32:12;29.60;54.40
4826;DHT22;2427;50.934;6.776;2023-04-03T14:34:38;29.70;52.90
4826;DHT22;2427;50.934;6.776;2023-04-03T14:37:05;28.90;47.50
4826;DHT22;2427;50.934;6.776;2023-04-03T14:39:30;28.60;44.40
4826;DHT22;2427;50.934;6.776;2023-04-03T14:41:56;27.80;40.90
4826;DHT22;2427;50.934;6.776;2023-04-03T14:44:21;28.20;40.60
4826;DHT22;2427;50.934;6.776;2023-04-03T14:46:48;27.70;39.20
4826;DHT22;2427;50.934;6.776;2023-04-03T14:49:24;28.40;39.50
4826;DHT22;2427;50.934;6.776;2023-04-03T14:51:50;28.10;37.00
4826;DHT22;2427;50.934;6.776;2023-04-03T14:54:18;27.70;34.30
4826;DHT22;2427;50.934;6.776;2023-04-03T14:56:47;28.10;35.10
4826;DHT22;2427;50.934;6.776;2023-04-03T14:59:13;28.10;32.60
4826;DHT22;2427;50.934;6.776;2023-04-03T15:01:39;28.00;32.20
4826;DHT22;2427;50.934;6.776;2023-04-03T15:04:11;28.10;31.70
4826;DHT22;2427;50.934;6.776;2023-04-03T15:06:37;27.60;29.50
4826;DHT22;2427;50.934;6.776;2023-04-03T15:09:02;27.60;28.50
4826;DHT22;2427;50.934;6.776;2023-04-03T15:11:28;28.00;29.40
4826;DHT22;2427;50.934;6.776;2023-04-03T15:13:54;28.10;29.30
4826;DHT22;2427;50.934;6.776;2023-04-03T15:16:20;28.60;29.50
4826;DHT22;2427;50.934;6.776;2023-04-03T15:18:47;28.60;29.00
4826;DHT22;2427;50.934;6.776;2023-04-03T15:21:13;27.50;24.60
4826;DHT22;2427;50.934;6.776;2023-04-03T15:23:39;27.00;23.60
4826;DHT22;2427;50.934;6.776;2023-04-03T15:26:05;27.60;24.30
4826;DHT22;2427;50.934;6.776;2023-04-03T15:28:34;27.70;33.20
4826;DHT22;2427;50.934;6.776;2023-04-03T15:31:00;27.40;22.10
4826;DHT22;2427;50.934;6.776;2023-04-03T15:33:26;27.20;21.90
4826;DHT22;2427;50.934;6.776;2023-04-03T15:35:51;27.00;20.60
4826;DHT22;2427;50.934;6.776;2023-04-03T15:38:17;27.00;18.70
4826;DHT22;2427;50.934;6.776;2023-04-03T15:40:43;26.40;17.10
4826;DHT22;2427;50.934;6.776;2023-04-03T15:43:09;26.20;16.60
4826;DHT22;2427;50.934;6.776;2023-04-03T15:45:36;26.40;16.60
4826;DHT22;2427;50.934;6.776;2023-04-03T15:48:04;26.60;17.10
4826;DHT22;2427;50.934;6.776;2023-04-03T15:50:31;26.60;16.50
4826;DHT22;2427;50.934;6.776;2023-04-03T15:52:57;26.30;15.60
4826;DHT22;2427;50.934;6.776;2023-04-03T15:55:28;26.30;15.40
4826;DHT22;2427;50.934;6.776;2023-04-03T15:57:54;25.90;13.30
4826;DHT22;2427;50.934;6.776;2023-04-03T16:00:20;25.10;10.30
4826;DHT22;2427;50.934;6.776;2023-04-03T16:02:47;24.10;7.50
4826;DHT22;2427;50.934;6.776;2023-04-03T16:05:14;24.10;7.80
4826;DHT22;2427;50.934;6.776;2023-04-03T16:07:41;23.70;5.90
4826;DHT22;2427;50.934;6.776;2023-04-03T16:10:08;22.60;3.30
4826;DHT22;2427;50.934;6.776;2023-04-03T16:12:34;21.10;1.00
4826;DHT22;2427;50.934;6.776;2023-04-03T16:14:59;19.40;1.00
4826;DHT22;2427;50.934;6.776;2023-04-03T16:17:27;17.90;1.00
4826;DHT22;2427;50.934;6.776;2023-04-03T16:19:53;16.50;1.00
4826;DHT22;2427;50.934;6.776;2023-04-03T16:22:19;15.60;1.00
4826;DHT22;2427;50.934;6.776;2023-04-03T16:24:45;14.70;1.00
4826;DHT22;2427;50.934;6.776;2023-04-03T16:27:10;13.90;1.00
4826;DHT22;2427;50.934;6.776;2023-04-03T16:29:36;13.40;1.00
4826;DHT22;2427;50.934;6.776;2023-04-03T16:32:02;13.00;1.00
4826;DHT22;2427;50.934;6.776;2023-04-03T16:34:27;12.70;1.00
4826;DHT22;2427;50.934;6.776;2023-04-03T16:36:55;12.50;1.00
4826;DHT22;2427;50.934;6.776;2023-04-03T16:39:21;12.10;1.00
4826;DHT22;2427;50.934;6.776;2023-04-03T16:41:46;11.90;1.00
4826;DHT22;2427;50.934;6.776;2023-04-03T16:44:12;11.80;1.00
4826;DHT22;2427;50.934;6.776;2023-04-03T16:46:37;11.60;1.00
4826;DHT22;2427;50.934;6.776;2023-04-03T16:49:03;11.40;1.00
4826;DHT22;2427;50.934;6.776;2023-04-03T16:51:29;11.30;1.00
4826;DHT22;2427;50.934;6.776;2023-04-03T16:53:55;11.10;1.00
4826;DHT22;2427;50.934;6.776;2023-04-03T16:56:20;10.90;1.00
4826;DHT22;2427;50.934;6.776;2023-04-03T16:58:47;10.80;1.00
4826;DHT22;2427;50.934;6.776;2023-04-03T17:01:17;10.70;1.00
4826;DHT22;2427;50.934;6.776;2023-04-03T17:03:43;10.50;1.00
4826;DHT22;2427;50.934;6.776;2023-04-03T17:06:11;10.50;1.00
4826;DHT22;2427;50.934;6.776;2023-04-03T17:08:42;10.30;1.00
4826;DHT22;2427;50.934;6.776;2023-04-03T17:11:07;10.20;1.00
4826;DHT22;2427;50.934;6.776;2023-04-03T17:13:33;10.10;1.00
4826;DHT22;2427;50.934;6.776;2023-04-03T17:15:59;10.00;1.00
4826;DHT22;2427;50.934;6.776;2023-04-03T17:18:28;9.90;1.00
4826;DHT22;2427;50.934;6.776;2023-04-03T17:20:55;9.80;1.00
4826;DHT22;2427;50.934;6.776;2023-04-03T17:23:21;9.70;1.00
4826;DHT22;2427;50.934;6.776;2023-04-03T17:25:46;9.60;1.00
4826;DHT22;2427;50.934;6.776;2023-04-03T17:28:12;9.50;1.00
4826;DHT22;2427;50.934;6.776;2023-04-03T17:30:37;9.40;1.00
4826;DHT22;2427;50.934;6.776;2023-04-03T17:33:03;9.30;1.00
4826;DHT22;2427;50.934;6.776;2023-04-03T17:35:29;9.20;1.00
4826;DHT22;2427;50.934;6.776;2023-04-03T17:37:55;9.10;1.00
4826;DHT22;2427;50.934;6.776;2023-04-03T17:40:21;9.10;1.00
4826;DHT22;2427;50.934;6.776;2023-04-03T17:42:46;9.00;1.00
4826;DHT22;2427;50.934;6.776;2023-04-03T17:45:12;8.90;1.70
4826;DHT22;2427;50.934;6.776;2023-04-03T17:47:38;8.80;2.20
4826;DHT22;2427;50.934;6.776;2023-04-03T17:50:04;8.70;2.70
4826;DHT22;2427;50.934;6.776;2023-04-03T17:52:30;8.60;3.10
4826;DHT22;2427;50.934;6.776;2023-04-03T17:54:56;8.50;3.90
4826;DHT22;2427;50.934;6.776;2023-04-03T17:57:21;8.40;4.80
4826;DHT22;2427;50.934;6.776;2023-04-03T17:59:47;8.30;5.80
4826;DHT22;2427;50.934;6.776;2023-04-03T18:02:13;8.20;6.90
4826;DHT22;2427;50.934;6.776;2023-04-03T18:04:38;8.10;7.50
4826;DHT22;2427;50.934;6.776;2023-04-03T18:07:04;8.10;7.60
4826;DHT22;2427;50.934;6.776;2023-04-03T18:09:33;8.00;8.30
4826;DHT22;2427;50.934;6.776;2023-04-03T18:12:03;7.90;8.70
4826;DHT22;2427;50.934;6.776;2023-04-03T18:14:32;7.90;8.80
4826;DHT22;2427;50.934;6.776;2023-04-03T18:16:58;7.80;9.50
4826;DHT22;2427;50.934;6.776;2023-04-03T18:19:24;7.70;10.10
4826;DHT22;2427;50.934;6.776;2023-04-03T18:21:54;7.60;10.10
4826;DHT22;2427;50.934;6.776;2023-04-03T18:24:21;7.60;11.40
4826;DHT22;2427;50.934;6.776;2023-04-03T18:26:52;7.50;11.30